sensor_id;sensor_type;location;lat;lon;timestamp;temperature;humidity
15949;DHT22;14848;50.954;6.642;2023-06-05T07:09:28;27.40;99.90
15949;DHT22;14848;50.954;6.642;2023-06-05T07:11:54;26.90;99.90
15949;DHT22;14848;50.954;6.642;2023-06-05T07:14:20;27.00;99.90
15949;DHT22;14848;50.954;6.642;2023-06-05T07:16:46;26.80;99.90
15949;DHT22;14848;50.954;6.642;2023-06-05T07:21:39;26.50;99.90
15949;DHT22;14848;50.954;6.642;2023-06-05T07:26:31;27.30;99.90
15949;DHT22;14848;50.954;6.642;2023-06-05T07:28:57;27.30;99.90
15949;DHT22;14848;50.954;6.642;2023-06-05T07:31:23;27.40;99.90
15949;DHT22;14848;50.954;6.642;2023-06-05T07:33:49;26.90;99.90
15949;DHT22;14848;50.954;6.642;2023-06-05T07:36:14;26.30;99.90
15949;DHT22;14848;50.954;6.642;2023-06-05T07:38:40;26.00;99.90
15949;DHT22;14848;50.954;6.642;2023-06-05T07:41:08;26.50;99.90
15949;DHT22;14848;50.954;6.642;2023-06-05T07:43:34;26.30;99.90
15949;DHT22;14848;50.954;6.642;2023-06-05T07:45:59;25.60;99.90
15949;DHT22;14848;50.954;6.642;2023-06-05T07:48:26;24.80;99.90
15949;DHT22;14848;50.954;6.642;2023-06-05T07:50:51;25.90;99.90
15949;DHT22;14848;50.954;6.642;2023-06-05T07:53:17;26.20;99.90
15949;DHT22;14848;50.954;6.642;2023-06-05T07:55:42;26.80;99.90
15949;DHT22;14848;50.954;6.642;2023-06-05T07:58:08;26.80;99.90
15949;DHT22;14848;50.954;6.642;2023-06-05T08:00:34;26.50;99.90
15949;DHT22;14848;50.954;6.642;2023-06-05T08:03:00;26.40;99.90
15949;DHT22;14848;50.954;6.642;2023-06-05T08:05:25;26.50;99.90
15949;DHT22;14848;50.954;6.642;2023-06-05T08:07:51;26.30;99.90
15949;DHT22;14848;50.954;6.642;2023-06-05T08:10:17;25.60;99.90
15949;DHT22;14848;50.954;6.642;2023-06-05T08:12:43;25.00;99.90
15949;DHT22;14848;50.954;6.642;2023-06-05T08:15:09;24.60;99.90
15949;DHT22;14848;50.954;6.642;2023-06-05T08:17:34;24.00;99.90
15949;DHT22;14848;50.954;6.642;2023-06-05T08:22:26;23.10;99.90
15949;DHT22;14848;50.954;6.642;2023-06-05T08:24:54;23.20;99.90
15949;DHT22;14848;50.954;6.642;2023-06-05T08:27:21;23.00;99.90
15949;DHT22;14848;50.954;6.642;2023-06-05T08:29:47;22.80;99.90
15949;DHT22;14848;50.954;6.642;2023-06-05T08:32:12;22.40;99.90
15949;DHT22;14848;50.954;6.642;2023-06-05T08:34:39;22.00;99.90
15949;DHT22;14848;50.954;6.642;2023-06-05T08:37:04;22.10;99.90
15949;DHT22;14848;50.954;6.642;2023-06-05T08:39:30;22.00;99.90
15949;DHT22;14848;50.954;6.642;2023-06-05T08:41:58;21.70;99.90
15949;DHT22;14848;50.954;6.642;2023-06-05T08:44:29;22.00;99.90
15949;DHT22;14848;50.954;6.642;2023-06-05T08:49:26;21.60;99.90
15949;DHT22;14848;50.954;6.642;2023-06-05T08:52:00;21.70;99.90
15949;DHT22;14848;50.954;6.642;2023-06-05T08:54:28;21.00;99.90
15949;DHT22;14848;50.954;6.642;2023-06-05T08:56:54;21.60;99.90
15949;DHT22;14848;50.954;6.642;2023-06-05T08:59:20;21.60;99.90
15949;DHT22;14848;50.954;6.642;2023-06-05T09:01:49;21.60;99.90
15949;DHT22;14848;50.954;6.642;2023-06-05T09:04:15;21.50;99.90
15949;DHT22;14848;50.954;6.642;2023-06-05T09:06:45;21.50;99.90
15949;DHT22;14848;50.954;6.642;2023-06-05T09:09:14;21.60;99.90
15949;DHT22;14848;50.954;6.642;2023-06-05T09:11:40;21.70;99.90
15949;DHT22;14848;50.954;6.642;2023-06-05T09:14:06;21.90;99.90
15949;DHT22;14848;50.954;6.642;2023-06-05T09:19:05;21.80;99.90
15949;DHT22;14848;50.954;6.642;2023-06-05T09:21:31;21.90;99.90
15949;DHT22;14848;50.954;6.642;2023-06-05T09:24:14;22.10;99.90
15949;DHT22;14848;50.954;6.642;2023-06-05T09:26:58;22.40;99.90
15949;DHT22;14848;50.954;6.642;2023-06-05T09:29:30;22.40;99.90
15949;DHT22;14848;50.954;6.642;2023-06-05T09:32:16;22.50;99.90
15949;DHT22;14848;50.954;6.642;2023-06-05T09:34:42;22.70;99.90
15949;DHT22;14848;50.954;6.642;2023-06-05T09:37:12;22.60;99.90
15949;DHT22;14848;50.954;6.642;2023-06-05T09:39:39;22.40;99.90
15949;DHT22;14848;50.954;6.642;2023-06-05T09:42:06;22.50;99.90
15949;DHT22;14848;50.954;6.642;2023-06-05T09:44:33;22.60;99.90
15949;DHT22;14848;50.954;6.642;2023-06-05T09:47:06;22.80;99.90
15949;DHT22;14848;50.954;6.642;2023-06-05T09:52:07;22.90;99.90
15949;DHT22;14848;50.954;6.642;2023-06-05T09:54:38;23.00;99.90
15949;DHT22;14848;50.954;6.642;2023-06-05T09:57:05;23.10;99.90
15949;DHT22;14848;50.954;6.642;2023-06-05T09:59:33;23.10;99.90
15949;DHT22;14848;50.954;6.642;2023-06-05T10:02:05;23.00;99.90
15949;DHT22;14848;50.954;6.642;2023-06-05T10:04:37;23.10;99.90
15949;DHT22;14848;50.954;6.642;2023-06-05T10:07:05;23.30;99.90
15949;DHT22;14848;50.954;6.642;2023-06-05T10:09:31;23.20;99.90
15949;DHT22;14848;50.954;6.642;2023-06-05T10:12:02;23.20;99.90
15949;DHT22;14848;50.954;6.642;2023-06-05T10:14:28;23.20;99.90
15949;DHT22;14848;50.954;6.642;2023-06-05T10:16:55;23.40;99.90
15949;DHT22;14848;50.954;6.642;2023-06-05T10:19:23;23.50;99.90
15949;DHT22;14848;50.954;6.642;2023-06-05T10:21:50;23.30;99.90
15949;DHT22;14848;50.954;6.642;2023-06-05T10:24:26;23.40;99.90
15949;DHT22;14848;50.954;6.642;2023-06-05T10:27:47;23.70;99.90
15949;DHT22;14848;50.954;6.642;2023-06-05T10:30:25;23.80;99.90
15949;DHT22;14848;50.954;6.642;2023-06-05T10:38:38;23.70;99.90
15949;DHT22;14848;50.954;6.642;2023-06-05T10:41:05;24.00;99.90
15949;DHT22;14848;50.954;6.642;2023-06-05T10:43:32;24.20;99.90
15949;DHT22;14848;50.954;6.642;2023-06-05T10:46:03;24.30;99.90
15949;DHT22;14848;50.954;6.642;2023-06-05T10:49:13;24.40;99.90
15949;DHT22;14848;50.954;6.642;2023-06-05T10:59:37;24.10;99.90
15949;DHT22;14848;50.954;6.642;2023-06-05T11:07:26;24.30;99.90
15949;DHT22;14848;50.954;6.642;2023-06-05T11:10:09;24.40;99.90
15949;DHT22;14848;50.954;6.642;2023-06-05T11:15:01;24.40;99.90
15949;DHT22;14848;50.954;6.642;2023-06-05T11:17:35;24.40;99.90
15949;DHT22;14848;50.954;6.642;2023-06-05T11:20:02;24.30;99.90
15949;DHT22;14848;50.954;6.642;2023-06-05T11:27:50;24.60;99.90
15949;DHT22;14848;50.954;6.642;2023-06-05T11:30:18;24.70;99.90
15949;DHT22;14848;50.954;6.642;2023-06-05T11:32:45;24.70;99.90
15949;DHT22;14848;50.954;6.642;2023-06-05T11:35:11;24.80;99.90
15949;DHT22;14848;50.954;6.642;2023-06-05T11:37:38;24.80;99.90
15949;DHT22;14848;50.954;6.642;2023-06-05T11:40:06;24.70;99.90
15949;DHT22;14848;50.954;6.642;2023-06-05T11:42:38;24.70;99.90
15949;DHT22;14848;50.954;6.642;2023-06-05T11:47:36;24.80;99.90
15949;DHT22;14848;50.954;6.642;2023-06-05T11:50:09;24.90;99.90
15949;DHT22;14848;50.954;6.642;2023-06-05T11:52:36;25.10;99.90
15949;DHT22;14848;50.954;6.642;2023-06-05T11:55:18;25.20;99.90
15949;DHT22;14848;50.954;6.642;2023-06-05T11:57:48;25.20;99.90
15949;DHT22;14848;50.954;6.642;2023-06-05T12:00:15;25.30;99.90
15949;DHT22;14848;50.954;6.642;2023-06-05T12:02:42;25.40;99.90
15949;DHT22;14848;50.954;6.642;2023-06-05T12:05:11;25.30;99.90
15949;DHT22;14848;50.954;6.642;2023-06-05T12:07:37;25.30;99.90
15949;DHT22;14848;50.954;6.642;2023-06-05T12:10:06;25.20;99.90
15949;DHT22;14848;50.954;6.642;2023-06-05T12:12:33;25.20;99.90
15949;DHT22;14848;50.954;6.642;2023-06-05T12:15:18;25.30;99.90
15949;DHT22;14848;50.954;6.642;2023-06-05T12:17:52;25.40;99.90
15949;DHT22;14848;50.954;6.642;2023-06-05T12:20:19;25.40;99.90
15949;DHT22;14848;50.954;6.642;2023-06-05T12:22:45;25.50;99.90
15949;DHT22;14848;50.954;6.642;2023-06-05T12:27:41;25.60;99.90
15949;DHT22;14848;50.954;6.642;2023-06-05T12:30:07;25.90;99.90
15949;DHT22;14848;50.954;6.642;2023-06-05T12:32:35;25.50;99.90
15949;DHT22;14848;50.954;6.642;2023-06-05T12:35:00;25.70;99.90
15949;DHT22;14848;50.954;6.642;2023-06-05T12:37:31;25.70;99.90
15949;DHT22;14848;50.954;6.642;2023-06-05T12:40:01;25.90;99.90
15949;DHT22;14848;50.954;6.642;2023-06-05T12:42:27;25.90;99.90
15949;DHT22;14848;50.954;6.642;2023-06-05T12:44:54;25.90;99.90
15949;DHT22;14848;50.954;6.642;2023-06-05T12:47:20;25.80;99.90
15949;DHT22;14848;50.954;6.642;2023-06-05T12:49:46;25.70;99.90
15949;DHT22;14848;50.954;6.642;2023-06-05T12:52:12;25.70;99.90
15949;DHT22;14848;50.954;6.642;2023-06-05T12:54:38;25.80;99.90
15949;DHT22;14848;50.954;6.642;2023-06-05T12:57:07;25.90;99.90
15949;DHT22;14848;50.954;6.642;2023-06-05T12:59:33;25.60;99.90
15949;DHT22;14848;50.954;6.642;2023-06-05T13:01:59;25.70;99.90
15949;DHT22;14848;50.954;6.642;2023-06-05T13:04:24;25.60;99.90
15949;DHT22;14848;50.954;6.642;2023-06-05T13:06:50;25.30;99.90
15949;DHT22;14848;50.954;6.642;2023-06-05T13:09:16;25.80;99.90
15949;DHT22;14848;50.954;6.642;2023-06-05T13:11:43;25.80;99.90
15949;DHT22;14848;50.954;6.642;2023-06-05T13:14:09;25.70;99.90
15949;DHT22;14848;50.954;6.642;2023-06-05T13:16:34;25.50;99.90
15949;DHT22;14848;50.954;6.642;2023-06-05T13:19:00;25.80;99.90
15949;DHT22;14848;50.954;6.642;2023-06-05T13:21:26;25.80;99.90
15949;DHT22;14848;50.954;6.642;2023-06-05T13:23:52;25.80;99.90
15949;DHT22;14848;50.954;6.642;2023-06-05T13:26:18;25.90;99.90
15949;DHT22;14848;50.954;6.642;2023-06-05T13:28:44;25.90;99.90
15949;DHT22;14848;50.954;6.642;2023-06-05T13:31:12;26.10;99.90
15949;DHT22;14848;50.954;6.642;2023-06-05T13:33:39;26.10;99.90
15949;DHT22;14848;50.954;6.642;2023-06-05T13:36:06;25.90;99.90
15949;DHT22;14848;50.954;6.642;2023-06-05T13:38:32;25.90;99.90
15949;DHT22;14848;50.954;6.642;2023-06-05T13:40:58;25.90;99.90
15949;DHT22;14848;50.954;6.642;2023-06-05T13:43:23;26.00;99.90
15949;DHT22;14848;50.954;6.642;2023-06-05T13:45:49;25.80;99.90
15949;DHT22;14848;50.954;6.642;2023-06-05T13:48:15;26.00;99.90
15949;DHT22;14848;50.954;6.642;2023-06-05T13:50:42;26.00;99.90
15949;DHT22;14848;50.954;6.642;2023-06-05T13:53:08;26.00;99.90
15949;DHT22;14848;50.954;6.642;2023-06-05T13:55:34;26.10;99.90
15949;DHT22;14848;50.954;6.642;2023-06-05T13:58:00;26.20;99.90
15949;DHT22;14848;50.954;6.642;2023-06-05T14:00:29;26.30;99.90
15949;DHT22;14848;50.954;6.642;2023-06-05T14:02:55;26.40;99.90
15949;DHT22;14848;50.954;6.642;2023-06-05T14:12:40;26.30;99.90
15949;DHT22;14848;50.954;6.642;2023-06-05T14:15:06;26.20;99.90
15949;DHT22;14848;50.954;6.642;2023-06-05T14:17:32;26.20;99.90
15949;DHT22;14848;50.954;6.642;2023-06-05T14:19:58;26.00;99.90
15949;DHT22;14848;50.954;6.642;2023-06-05T14:22:23;26.20;99.90
15949;DHT22;14848;50.954;6.642;2023-06-05T14:24:49;26.10;99.90
15949;DHT22;14848;50.954;6.642;2023-06-05T14:27:15;26.20;99.90
15949;DHT22;14848;50.954;6.642;2023-06-05T14:29:41;26.20;99.90
15949;DHT22;14848;50.954;6.642;2023-06-05T14:32:07;26.20;99.90
15949;DHT22;14848;50.954;6.642;2023-06-05T14:34:33;26.20;99.90
15949;DHT22;14848;50.954;6.642;2023-06-05T14:36:59;26.20;99.90
15949;DHT22;14848;50.954;6.642;2023-06-05T14:39:25;26.30;99.90
15949;DHT22;14848;50.954;6.642;2023-06-05T14:41:51;26.30;99.90
15949;DHT22;14848;50.954;6.642;2023-06-05T14:44:16;26.30;99.90
15949;DHT22;14848;50.954;6.642;2023-06-05T14:46:42;26.30;99.90
15949;DHT22;14848;50.954;6.642;2023-06-05T14:49:08;26.40;99.90
15949;DHT22;14848;50.954;6.642;2023-06-05T14:51:34;26.40;99.90
15949;DHT22;14848;50.954;6.642;2023-06-05T14:53:59;26.30;99.90
15949;DHT22;14848;50.954;6.642;2023-06-05T14:56:25;26.20;99.90
15949;DHT22;14848;50.954;6.642;2023-06-05T14:58:51;26.30;99.90
15949;DHT22;14848;50.954;6.642;2023-06-05T15:01:17;26.50;99.90
15949;DHT22;14848;50.954;6.642;2023-06-05T15:03:44;26.40;99.90
15949;DHT22;14848;50.954;6.642;2023-06-05T15:06:10;26.30;99.90
15949;DHT22;14848;50.954;6.642;2023-06-05T15:08:36;26.40;99.90
15949;DHT22;14848;50.954;6.642;2023-06-05T15:11:01;26.50;99.90
15949;DHT22;14848;50.954;6.642;2023-06-05T15:13:27;26.50;99.90
15949;DHT22;14848;50.954;6.642;2023-06-05T15:15:52;26.70;99.90
15949;DHT22;14848;50.954;6.642;2023-06-05T15:18:18;26.80;99.90
15949;DHT22;14848;50.954;6.642;2023-06-05T15:20:44;26.80;99.90
15949;DHT22;14848;50.954;6.642;2023-06-05T15:23:09;26.90;99.90
15949;DHT22;14848;50.954;6.642;2023-06-05T15:25:35;26.90;99.90
15949;DHT22;14848;50.954;6.642;2023-06-05T15:28:01;26.60;99.90
15949;DHT22;14848;50.954;6.642;2023-06-05T15:30:27;26.60;99.90
15949;DHT22;14848;50.954;6.642;2023-06-05T15:32:52;26.30;99.90
15949;DHT22;14848;50.954;6.642;2023-06-05T15:35:18;26.40;99.90
15949;DHT22;14848;50.954;6.642;2023-06-05T15:37:44;26.30;99.90
15949;DHT22;14848;50.954;6.642;2023-06-05T15:40:10;26.50;99.90
15949;DHT22;14848;50.954;6.642;2023-06-05T15:42:36;26.40;99.90
15949;DHT22;14848;50.954;6.642;2023-06-05T15:45:09;26.50;99.90
15949;DHT22;14848;50.954;6.642;2023-06-05T15:47:36;26.60;99.90
15949;DHT22;14848;50.954;6.642;2023-06-05T15:50:03;26.80;99.90
15949;DHT22;14848;50.954;6.642;2023-06-05T15:52:30;27.00;99.90
15949;DHT22;14848;50.954;6.642;2023-06-05T15:57:26;27.30;99.90
15949;DHT22;14848;50.954;6.642;2023-06-05T15:59:52;27.30;99.90
15949;DHT22;14848;50.954;6.642;2023-06-05T16:02:18;27.20;99.90
15949;DHT22;14848;50.954;6.642;2023-06-05T16:04:44;27.20;99.90
15949;DHT22;14848;50.954;6.642;2023-06-05T16:07:10;27.40;99.90
15949;DHT22;14848;50.954;6.642;2023-06-05T16:09:35;27.40;99.90
15949;DHT22;14848;50.954;6.642;2023-06-05T16:12:01;27.40;99.90
15949;DHT22;14848;50.954;6.642;2023-06-05T16:14:27;27.20;99.90
15949;DHT22;14848;50.954;6.642;2023-06-05T16:16:54;27.10;99.90
15949;DHT22;14848;50.954;6.642;2023-06-05T16:19:20;27.10;99.90
15949;DHT22;14848;50.954;6.642;2023-06-05T16:21:46;27.00;99.90
15949;DHT22;14848;50.954;6.642;2023-06-05T16:24:12;27.40;99.90
15949;DHT22;14848;50.954;6.642;2023-06-05T16:26:39;27.20;99.90
15949;DHT22;14848;50.954;6.642;2023-06-05T16:29:05;27.20;99.90
15949;DHT22;14848;50.954;6.642;2023-06-05T16:31:31;27.20;99.90
15949;DHT22;14848;50.954;6.642;2023-06-05T16:33:57;27.30;99.90
15949;DHT22;14848;50.954;6.642;2023-06-05T16:36:22;27.30;99.90
15949;DHT22;14848;50.954;6.642;2023-06-05T16:38:48;27.30;99.90
15949;DHT22;14848;50.954;6.642;2023-06-05T16:41:14;27.10;99.90
15949;DHT22;14848;50.954;6.642;2023-06-05T16:43:39;27.00;99.90
15949;DHT22;14848;50.954;6.642;2023-06-05T16:46:05;26.90;99.90
15949;DHT22;14848;50.954;6.642;2023-06-05T16:48:31;26.90;99.90
15949;DHT22;14848;50.954;6.642;2023-06-05T16:50:58;27.10;99.90
15949;DHT22;14848;50.954;6.642;2023-06-05T16:53:24;27.10;99.90
15949;DHT22;14848;50.954;6.642;2023-06-05T16:55:49;26.90;99.90
15949;DHT22;14848;50.954;6.642;2023-06-05T16:58:15;26.90;99.90
15949;DHT22;14848;50.954;6.642;2023-06-05T17:00:41;27.00;99.90
15949;DHT22;14848;50.954;6.642;2023-06-05T17:03:06;26.80;99.90
15949;DHT22;14848;50.954;6.642;2023-06-05T17:05:32;26.90;99.90
15949;DHT22;14848;50.954;6.642;2023-06-05T17:07:58;26.60;99.90
15949;DHT22;14848;50.954;6.642;2023-06-05T17:10:24;26.60;99.90
15949;DHT22;14848;50.954;6.642;2023-06-05T17:12:50;26.70;99.90
15949;DHT22;14848;50.954;6.642;2023-06-05T17:15:16;26.70;99.90
15949;DHT22;14848;50.954;6.642;2023-06-05T17:17:42;26.80;99.90
15949;DHT22;14848;50.954;6.642;2023-06-05T17:20:08;26.70;99.90
15949;DHT22;14848;50.954;6.642;2023-06-05T17:22:36;26.50;99.90
15949;DHT22;14848;50.954;6.642;2023-06-05T17:25:03;26.20;99.90
15949;DHT22;14848;50.954;6.642;2023-06-05T17:27:29;26.40;99.90
15949;DHT22;14848;50.954;6.642;2023-06-05T17:29:55;26.30;99.90
15949;DHT22;14848;50.954;6.642;2023-06-05T17:32:21;26.30;99.90
15949;DHT22;14848;50.954;6.642;2023-06-05T17:34:47;26.40;99.90
15949;DHT22;14848;50.954;6.642;2023-06-05T17:37:13;26.30;99.90
15949;DHT22;14848;50.954;6.642;2023-06-05T17:39:39;26.20;99.90
15949;DHT22;14848;50.954;6.642;2023-06-05T17:42:05;26.30;99.90
15949;DHT22;14848;50.954;6.642;2023-06-05T17:44:31;26.50;99.90
15949;DHT22;14848;50.954;6.642;2023-06-05T17:46:58;26.30;99.90
15949;DHT22;14848;50.954;6.642;2023-06-05T17:49:24;26.20;99.90
15949;DHT22;14848;50.954;6.642;2023-06-05T17:51:50;26.10;99.90
15949;DHT22;14848;50.954;6.642;2023-06-05T17:54:16;26.20;99.90
15949;DHT22;14848;50.954;6.642;2023-06-05T17:56:41;26.30;99.90
15949;DHT22;14848;50.954;6.642;2023-06-05T17:59:07;26.40;99.90
15949;DHT22;14848;50.954;6.642;2023-06-05T18:01:33;26.40;99.90
15949;DHT22;14848;50.954;6.642;2023-06-05T18:03:58;26.20;99.90
15949;DHT22;14848;50.954;6.642;2023-06-05T18:06:25;26.10;99.90
15949;DHT22;14848;50.954;6.642;2023-06-05T18:08:51;26.00;99.90
15949;DHT22;14848;50.954;6.642;2023-06-05T18:11:17;25.90;99.90
15949;DHT22;14848;50.954;6.642;2023-06-05T18:13:43;25.60;99.90
15949;DHT22;14848;50.954;6.642;2023-06-05T18:16:09;25.40;99.90
15949;DHT22;14848;50.954;6.642;2023-06-05T18:18:35;25.30;99.90
15949;DHT22;14848;50.954;6.642;2023-06-05T18:21:03;24.90;99.90
15949;DHT22;14848;50.954;6.642;2023-06-05T18:23:28;25.40;99.90
15949;DHT22;14848;50.954;6.642;2023-06-05T18:25:55;25.40;99.90
15949;DHT22;14848;50.954;6.642;2023-06-05T18:28:21;25.40;99.90
15949;DHT22;14848;50.954;6.642;2023-06-05T18:30:47;25.30;99.90
15949;DHT22;14848;50.954;6.642;2023-06-05T18:33:12;25.20;99.90
15949;DHT22;14848;50.954;6.642;2023-06-05T18:35:40;25.10;99.90
15949;DHT22;14848;50.954;6.642;2023-06-05T18:38:06;24.90;99.90
15949;DHT22;14848;50.954;6.642;2023-06-05T18:40:33;24.70;99.90
15949;DHT22;14848;50.954;6.642;2023-06-05T18:42:59;24.50;99.90
15949;DHT22;14848;50.954;6.642;2023-06-05T18:45:25;24.30;99.90
15949;DHT22;14848;50.954;6.642;2023-06-05T18:47:50;24.10;99.90
15949;DHT22;14848;50.954;6.642;2023-06-05T18:50:16;24.00;99.90
15949;DHT22;14848;50.954;6.642;2023-06-05T18:52:43;23.80;99.90
15949;DHT22;14848;50.954;6.642;2023-06-05T18:55:08;23.60;99.90
15949;DHT22;14848;50.954;6.642;2023-06-05T18:57:34;23.50;99.90
15949;DHT22;14848;50.954;6.642;2023-06-05T19:00:00;23.30;99.90
15949;DHT22;14848;50.954;6.642;2023-06-05T19:02:26;23.30;99.90
15949;DHT22;14848;50.954;6.642;2023-06-05T19:04:51;23.20;99.90
15949;DHT22;14848;50.954;6.642;2023-06-05T19:07:17;23.10;99.90
15949;DHT22;14848;50.954;6.642;2023-06-05T19:09:43;23.00;99.90
15949;DHT22;14848;50.954;6.642;2023-06-05T19:12:08;22.80;99.90
15949;DHT22;14848;50.954;6.642;2023-06-05T19:14:34;22.80;99.90
15949;DHT22;14848;50.954;6.642;2023-06-05T19:19:26;22.60;99.90
15949;DHT22;14848;50.954;6.642;2023-06-05T19:21:51;22.50;99.90
15949;DHT22;14848;50.954;6.642;2023-06-05T19:24:17;22.40;99.90
15949;DHT22;14848;50.954;6.642;2023-06-05T19:29:09;22.20;99.90
15949;DHT22;14848;50.954;6.642;2023-06-05T19:34:03;22.10;99.90
15949;DHT22;14848;50.954;6.642;2023-06-05T19:38:56;22.00;99.90
15949;DHT22;14848;50.954;6.642;2023-06-05T19:41:21;22.10;99.90
15949;DHT22;14848;50.954;6.642;2023-06-05T19:43:47;21.90;99.90
15949;DHT22;14848;50.954;6.642;2023-06-05T19:46:14;21.80;99.90
15949;DHT22;14848;50.954;6.642;2023-06-05T19:51:06;21.60;99.90
15949;DHT22;14848;50.954;6.642;2023-06-05T19:55:57;21.40;99.90
15949;DHT22;14848;50.954;6.642;2023-06-05T19:58:23;21.30;99.90
15949;DHT22;14848;50.954;6.642;2023-06-05T20:00:51;20.90;99.90
15949;DHT22;14848;50.954;6.642;2023-06-05T20:03:17;20.70;99.90
15949;DHT22;14848;50.954;6.642;2023-06-05T20:10:35;19.50;99.90
15949;DHT22;14848;50.954;6.642;2023-06-05T20:13:00;19.40;99.90
15949;DHT22;14848;50.954;6.642;2023-06-05T20:15:27;19.30;99.90
15949;DHT22;14848;50.954;6.642;2023-06-05T20:17:53;19.20;99.90
15949;DHT22;14848;50.954;6.642;2023-06-05T20:22:45;19.00;99.90
15949;DHT22;14848;50.954;6.642;2023-06-05T20:25:11;19.10;99.90
15949;DHT22;14848;50.954;6.642;2023-06-05T20:27:37;19.10;99.90
15949;DHT22;14848;50.954;6.642;2023-06-05T20:30:06;19.30;99.90
15949;DHT22;14848;50.954;6.642;2023-06-05T20:32:32;19.20;99.90
15949;DHT22;14848;50.954;6.642;2023-06-05T20:34:58;19.20;99.90
15949;DHT22;14848;50.954;6.642;2023-06-05T20:37:25;19.70;99.90
15949;DHT22;14848;50.954;6.642;2023-06-05T20:39:59;19.20;99.90
15949;DHT22;14848;50.954;6.642;2023-06-05T20:49:53;19.60;99.90
15949;DHT22;14848;50.954;6.642;2023-06-05T20:52:24;19.40;99.90
15949;DHT22;14848;50.954;6.642;2023-06-05T21:17:04;19.10;99.90
15949;DHT22;14848;50.954;6.642;2023-06-05T21:19:29;19.40;99.90
15949;DHT22;14848;50.954;6.642;2023-06-05T21:21:55;19.40;99.90
15949;DHT22;14848;50.954;6.642;2023-06-05T21:24:21;19.40;99.90
15949;DHT22;14848;50.954;6.642;2023-06-05T21:26:46;19.40;99.90
15949;DHT22;14848;50.954;6.642;2023-06-05T21:29:12;19.40;99.90
15949;DHT22;14848;50.954;6.642;2023-06-05T21:31:46;19.30;99.90
15949;DHT22;14848;50.954;6.642;2023-06-05T21:34:12;19.30;99.90
15949;DHT22;14848;50.954;6.642;2023-06-05T21:36:42;19.30;99.90
15949;DHT22;14848;50.954;6.642;2023-06-05T21:39:13;19.30;99.90
15949;DHT22;14848;50.954;6.642;2023-06-05T21:41:40;19.40;99.90
15949;DHT22;14848;50.954;6.642;2023-06-05T21:44:06;19.30;99.90
15949;DHT22;14848;50.954;6.642;2023-06-05T21:46:32;19.20;99.90
15949;DHT22;14848;50.954;6.642;2023-06-05T21:48:57;19.20;99.90
15949;DHT22;14848;50.954;6.642;2023-06-05T21:51:23;19.20;99.90
15949;DHT22;14848;50.954;6.642;2023-06-05T21:53:49;19.20;99.90
15949;DHT22;14848;50.954;6.642;2023-06-05T21:56:15;19.20;99.90
15949;DHT22;14848;50.954;6.642;2023-06-05T21:58:41;19.20;99.90
15949;DHT22;14848;50.954;6.642;2023-06-05T22:01:07;19.10;99.90
15949;DHT22;14848;50.954;6.642;2023-06-05T22:03:33;19.10;99.90
15949;DHT22;14848;50.954;6.642;2023-06-05T22:05:58;19.20;99.90
15949;DHT22;14848;50.954;6.642;2023-06-05T22:08:26;19.10;99.90
15949;DHT22;14848;50.954;6.642;2023-06-05T22:10:55;19.00;99.90
15949;DHT22;14848;50.954;6.642;2023-06-05T22:13:21;19.10;99.90
15949;DHT22;14848;50.954;6.642;2023-06-05T22:15:47;19.00;99.90
15949;DHT22;14848;50.954;6.642;2023-06-05T22:28:11;18.80;99.90
15949;DHT22;14848;50.954;6.642;2023-06-05T22:30:36;19.00;99.90
15949;DHT22;14848;50.954;6.642;2023-06-05T22:35:28;18.50;99.90
15949;DHT22;14848;50.954;6.642;2023-06-05T22:50:07;18.30;99.90
15949;DHT22;14848;50.954;6.642;2023-06-05T22:52:33;18.10;99.90
15949;DHT22;14848;50.954;6.642;2023-06-05T22:55:03;18.10;99.90
15949;DHT22;14848;50.954;6.642;2023-06-05T22:57:29;18.00;99.90
15949;DHT22;14848;50.954;6.642;2023-06-05T22:59:55;18.00;99.90
15949;DHT22;14848;50.954;6.642;2023-06-05T23:02:23;17.90;99.90
15949;DHT22;14848;50.954;6.642;2023-06-05T23:04:55;17.80;99.90
15949;DHT22;14848;50.954;6.642;2023-06-05T23:07:22;17.70;99.90
15949;DHT22;14848;50.954;6.642;2023-06-05T23:09:47;17.60;99.90
15949;DHT22;14848;50.954;6.642;2023-06-05T23:12:13;17.60;99.90
15949;DHT22;14848;50.954;6.642;2023-06-05T23:14:39;17.50;99.90
15949;DHT22;14848;50.954;6.642;2023-06-05T23:17:06;17.50;99.90
15949;DHT22;14848;50.954;6.642;2023-06-05T23:19:32;17.40;99.90
15949;DHT22;14848;50.954;6.642;2023-06-05T23:21:58;17.30;99.90
15949;DHT22;14848;50.954;6.642;2023-06-05T23:24:23;17.20;99.90
15949;DHT22;14848;50.954;6.642;2023-06-05T23:26:49;17.20;99.90
15949;DHT22;14848;50.954;6.642;2023-06-05T23:29:15;17.20;99.90
15949;DHT22;14848;50.954;6.642;2023-06-05T23:31:41;17.10;99.90
15949;DHT22;14848;50.954;6.642;2023-06-05T23:34:08;17.10;99.90
15949;DHT22;14848;50.954;6.642;2023-06-05T23:36:34;17.00;99.90
15949;DHT22;14848;50.954;6.642;2023-06-05T23:39:00;16.90;99.90
15949;DHT22;14848;50.954;6.642;2023-06-05T23:41:26;16.80;99.90
15949;DHT22;14848;50.954;6.642;2023-06-05T23:46:20;16.50;99.90
15949;DHT22;14848;50.954;6.642;2023-06-05T23:48:47;16.80;99.90
15949;DHT22;14848;50.954;6.642;2023-06-05T23:51:12;16.70;99.90
15949;DHT22;14848;50.954;6.642;2023-06-05T23:58:30;16.50;99.90
